If you wish to contribute or participate in the discussions about articles you are invited to join SKYbrary as a registered user

 Actions

Cañal Bajo Carlos - Hott Siebert Airport

From SKYbrary Wiki

SCJO
Airport
ICAO: SCJO – IATA: ZOS
Summary
Name Cañal Bajo Carlos - Hott Siebert Airport
Region South America and Caribbean
Territory Chile CL.gif
Location Osorno, Los Lagos
Serving Osorno
Elevation 56.998 m
187 ft
187 ft56.998 m
Type medium airport
Coordinates 40° 36' 40.35" S, 73° 3' 39.75" W
Runways
Designator Length Width Surface ROPS
13/31 1700 m5,577.428 ft
36 m118.11 ft
ASP /


METAR
Observation SCJO 211900Z 16005KT 9999 BKN035 13/05 Q1026
Station OSORNO/CANAL BAJ
Date/Time 21 October 2019 19:00:00
Wind direction 160°
Wind speed 05 kts
Lowest cloud amount broken clouds
Temperature 13°C
Dew point 5°C
Humidity 58%
QNH 1026 hPa
Weather condition n/a

Airport located 4 nm7,408 m
7.408 km
24,304.462 ft
east of Osorno, a city in the Los Lagos Region of Chile.

Climatology

Oceanic climate (Köppen climate classification Cfb)

Maps

Terrain

Loading map...

Airport Layout

Loading map...


Accidents & Serious Incidents at or in vicinity of SCJO

None on SKYbrary